Flight Track Log - Related Links

Times and Time Zones

All times are in EDT time to prevent confusion due to time zone crossing. See the RPA3901 flight status page for this flight to view local times or setup timezone preferences in your user account.

Time Position Orientation Groundspeed Altitude Reporting Facility
EDT Latitude Longitude Course Direction KTS MPH feet Rate Location/Type
Thu 04:37:41 PM 40.7333 -74.1167 90° East 208 239 2,500  Level New York TRACON
Thu 04:38:41 PM 40.8000 -74.1333 349° North 232 267 3,800 1,750 Climbing New York TRACON
Thu 04:39:41 PM 40.8500 -74.1833 323° Northwest 224 258 6,000 1,150 Climbing New York TRACON
Thu 04:40:00 PM 41.0855 -74.1346 North  Level FlightAware Approximate
Thu 04:40:41 PM 40.9167 -74.1667 11° North 236 272 6,100  Level New York TRACON
Thu 04:41:00 PM 41.1604 -74.0867 74° East  Level FlightAware Approximate
Thu 04:41:41 PM 40.9667 -74.1500 14° North 212 244 6,100  Level New York TRACON
Thu 04:42:00 PM 41.1833 -73.9566 90° East  Level FlightAware Approximate
Thu 04:42:41 PM 41.0333 -74.1500 360° North 212 244 6,100  Level New York TRACON
Thu 04:43:41 PM 41.0833 -74.1500 360° North 210 242 6,100  Level New York TRACON
Thu 04:44:41 PM 41.1500 -74.1333 11° North 212 244 6,100 923 Level New York TRACON
Thu 04:46:30 PM 41.1914 -73.9903 69° East 249 287 8,700 1,527 Climbing Boston Center
Thu 04:47:30 PM 41.2092 -73.9081 74° East 249 287 10,400 1,150 Climbing Boston Center
Thu 04:48:30 PM 41.2269 -73.8283 73° East 254 292 11,000 300 Climbing Boston Center
Thu 04:49:30 PM 41.2489 -73.7294 74° East 254 292 11,000  Level Boston Center
Thu 04:50:30 PM 41.2708 -73.6306 74° East 254 292 11,000  Level Boston Center
Thu 04:51:30 PM 41.2967 -73.5592 64° Northeast 241 277 11,000  Level Boston Center
Thu 04:52:30 PM 41.3472 -73.4936 44° Northeast 230 265 11,000  Level Boston Center
Thu 04:53:30 PM 41.3936 -73.4308 45° Northeast 230 265 11,000  Level Boston Center
Thu 04:54:30 PM 41.4422 -73.3650 45° Northeast 230 265 11,000  Level Boston Center
Thu 04:55:30 PM 41.4925 -73.3019 43° Northeast 236 272 11,000  Level Boston Center
Thu 04:56:30 PM 41.5553 -73.2944 North 223 257 11,000  Level Boston Center
Thu 04:57:30 PM 41.6175 -73.3147 346° North 218 251 11,000  Level Boston Center
Thu 04:58:30 PM 41.6778 -73.3461 339° North 230 265 11,000  Level Boston Center
Thu 04:59:42 PM 41.7381 -73.3692 344° North 225 259 11,000  Level Boston Center
Thu 05:00:42 PM 41.8067 -73.3981 343° North 232 267 11,000  Level Boston Center
Thu 05:01:20 PM 41.8481 -73.4183 340° North 231 266 11,000 61 Level Boston Center
Thu 05:02:21 PM 41.9125 -73.4444 343° North 229 264 11,100  Climbing Boston Center
Thu 05:03:16 PM 41.9644 -73.4703 340° North 226 260 11,000 -52 Descending Boston Center
Thu 05:04:16 PM 42.0308 -73.4939 345° North 225 259 11,000  Level Boston Center
Thu 05:05:17 PM 42.0889 -73.5228 340° North 224 258 11,000 49 Level Boston Center
Thu 05:06:18 PM 42.1511 -73.5378 350° North 228 262 11,100  Climbing Boston Center
Thu 05:06:54 PM 42.1742 -73.5439 349° North 222 255 11,000 -250 Descending Boston Center
Thu 05:07:54 PM 42.2511 -73.5619 350° North 222 255 10,700 -659 Descending Boston Center
Thu 05:08:25 PM 42.2822 -73.5653 355° North 234 269 10,000 -1,286 Descending Boston Center
Thu 05:09:32 PM 42.3486 -73.5975 340° North 218 251 8,600 -1,359 Descending Boston Center
Thu 05:10:33 PM 42.4047 -73.6211 343° North 207 238 7,100 -1,468 Descending Boston Center
Thu 05:11:06 PM 42.4358 -73.6328 345° North 211 243 6,300 -1,419 Descending Boston Center
Thu 05:12:06 PM 42.4772 -73.6561 337° Northwest 198 228 4,900 -1,150 Descending Boston Center
Thu 05:13:06 PM 42.5311 -73.6911 334° Northwest 187 215 4,000 -450 Descending Boston Center
Thu 05:14:06 PM 42.5703 -73.7172 334° Northwest 182 209 4,000  Level Boston Center

Login

Don't have an account? Register now (free) for customized features, flight alerts, and more!